»·PEaware :: TEXAN27 KRND-KRND

TEXAN27 :: KRND-KRND

FLIGHT INFORMATION

Flight Status: Arrived
Operator: Unknown
More flights by this operator :: More flights under this callsign
Pilot: Indie I. (23348)
Aircraft: BEECH AIRCRAFT T-6A TEXAN
(TEX2)
More flights by this aircraft type
Origin: KRND Randolph AFB
United States
Destination: KRND Randolph AFB
United States
More flights between these airports :: More routes between these airports
Route: KRND KRND
File this flight plan on PilotEdge
Remarks: vfr pattern 15R
Altitude:
(Current/Filed)
1,800ft
Speed:
(Current/Filed)
200kts
Departed: 19-Aug-20 11:11 AM
Arrived: 19-Aug-20 11:43 AM
Distance/Time
Traveled:
1nm/0:31
Distance/Time
To Go:
Arrived

Flight Plot

Page will automatically refresh every two minutes.

Flight plan parsing failed; only flown route is shown


Map Options




Map Legend


Flown Route
Filed Route
Departure Airport
Arrival Airport
Navaid (VOR, NDB)
Fix

Horizontal Profiles

Position Reports

Time Latitude Longitude Heading Altitude Ground
Speed
19-Aug-20 11:04 29.534800 -98.292056 146 766ft 0kts
19-Aug-20 11:05 29.534796 -98.292053 146 765ft 0kts
19-Aug-20 11:06 29.534795 -98.292052 146 765ft 0kts
19-Aug-20 11:07 29.534793 -98.292050 146 765ft 0kts
19-Aug-20 11:08 29.534595 -98.292117 232 765ft 0kts
19-Aug-20 11:09 29.534593 -98.292120 232 765ft 0kts
19-Aug-20 11:10 29.530556 -98.290340 149 765ft 64kts
19-Aug-20 11:11 29.507714 -98.289822 323 1836ft 152kts
19-Aug-20 11:12 29.543419 -98.311677 22 1699ft 126kts
19-Aug-20 11:13 29.527589 -98.288377 150 765ft 87kts
19-Aug-20 11:14 29.494493 -98.291710 243 1938ft 202kts
19-Aug-20 11:15 29.530558 -98.331667 331 1783ft 213kts
19-Aug-20 11:16 29.564874 -98.316842 101 1797ft 208kts
19-Aug-20 11:17 29.519599 -98.295180 261 1790ft 170kts
19-Aug-20 11:18 29.546667 -98.304995 95 1452ft 135kts
19-Aug-20 11:20 29.522422 -98.285067 150 967ft 137kts
19-Aug-20 11:21 29.525072 -98.303281 329 1884ft 145kts
19-Aug-20 11:22 29.540471 -98.297225 143 957ft 132kts
19-Aug-20 11:23 29.509953 -98.280159 208 1551ft 166kts
19-Aug-20 11:24 29.535778 -98.309886 330 1634ft 126kts
19-Aug-20 11:25 29.530355 -98.290188 151 765ft 75kts
19-Aug-20 11:26 29.512708 -98.293894 332 1722ft 167kts
19-Aug-20 11:27 29.545996 -98.309415 57 1435ft 136kts
19-Aug-20 11:28 29.523530 -98.285721 151 873ft 122kts
19-Aug-20 11:29 29.489218 -98.296836 247 1874ft 202kts
19-Aug-20 11:30 29.533267 -98.334139 330 1778ft 215kts
19-Aug-20 11:31 29.563649 -98.312940 145 1770ft 201kts
19-Aug-20 11:32 29.518283 -98.297046 271 1772ft 161kts
19-Aug-20 11:32 29.543739 -98.313182 43 1434ft 138kts
19-Aug-20 11:34 29.518414 -98.282214 151 1187ft 162kts
19-Aug-20 11:35 29.530858 -98.308132 329 1977ft 141kts
19-Aug-20 11:36 29.536171 -98.294080 150 818ft 115kts
19-Aug-20 11:36 29.510952 -98.277608 151 1521ft 177kts
19-Aug-20 11:37 29.505454 -98.315893 330 1816ft 205kts
19-Aug-20 11:39 29.564624 -98.353122 333 1535ft 197kts
19-Aug-20 11:39 29.585386 -98.336430 100 1232ft 167kts
19-Aug-20 11:40 29.556110 -98.307012 149 1146ft 131kts
19-Aug-20 11:41 29.528191 -98.288673 152 765ft 71kts
19-Aug-20 11:42 29.530863 -98.288362 336 765ft 36kts
19-Aug-20 11:43 29.534707 -98.292145 187 765ft 0kts
19-Aug-20 11:44 29.534707 -98.292145 187 765ft 0kts
19-Aug-20 11:45 29.534707 -98.292145 187 765ft 0kts
19-Aug-20 11:46 29.534707 -98.292145 187 765ft 0kts
19-Aug-20 11:47 29.534707 -98.292145 187 765ft 0kts
19-Aug-20 11:48 29.534707 -98.292145 187 765ft 0kts
19-Aug-20 11:49 29.534707 -98.292145 187 765ft 0kts
19-Aug-20 11:50 29.534707 -98.292145 187 765ft 0kts
19-Aug-20 11:51 29.534702 -98.292146 187 765ft 0kts
19-Aug-20 11:52 29.523130 -98.285284 148 1025ft 152kts
19-Aug-20 11:53 29.485310 -98.303329 240 2170ft 206kts
19-Aug-20 11:54 29.532754 -98.332302 330 1806ft 220kts
19-Aug-20 11:55 29.560158 -98.311294 143 1733ft 212kts
19-Aug-20 11:56 29.522290 -98.300933 321 1686ft 158kts

Navigation Log

Ident Type
Flight plan parsing failed, navigation log unavailable